createdAt,value
2019-01-20T00:01:43.046Z,4.45
2019-01-20T00:04:12.500Z,4.56
2019-01-20T00:06:41.930Z,4.47
2019-01-20T00:09:12.551Z,4.55
2019-01-20T00:11:42.041Z,4.62
2019-01-20T00:14:11.478Z,4.69
2019-01-20T00:16:41.054Z,4.76
2019-01-20T00:19:10.509Z,4.66
2019-01-20T00:21:39.990Z,4.75
2019-01-20T00:24:09.465Z,4.70
2019-01-20T00:26:38.870Z,4.78
2019-01-20T00:29:08.336Z,4.84
2019-01-20T00:31:38.053Z,4.89
2019-01-20T00:34:07.534Z,4.78
2019-01-20T00:36:36.905Z,4.69
2019-01-20T00:39:09.315Z,4.59
2019-01-20T00:41:38.770Z,4.67
2019-01-20T00:44:08.203Z,4.74
2019-01-20T00:46:37.795Z,4.68
2019-01-20T00:49:07.237Z,4.74
2019-01-20T00:51:36.924Z,4.59
2019-01-20T00:54:07.020Z,4.66
2019-01-20T00:56:36.418Z,4.69
2019-01-20T00:59:05.848Z,4.68
2019-01-20T01:01:35.394Z,4.76
2019-01-20T01:04:05.031Z,4.85
2019-01-20T01:06:34.406Z,4.72
2019-01-20T01:09:05.692Z,4.69
2019-01-20T01:11:36.319Z,4.79
2019-01-20T01:14:05.874Z,4.84
2019-01-20T01:16:35.311Z,4.84
2019-01-20T01:19:04.877Z,4.82
2019-01-20T01:21:34.364Z,4.85
2019-01-20T01:24:04.080Z,4.87
2019-01-20T01:26:33.524Z,4.86
2019-01-20T01:29:02.958Z,4.79
2019-01-20T01:31:32.555Z,4.79
2019-01-20T01:34:02.010Z,4.81
2019-01-20T01:36:31.529Z,4.82
2019-01-20T01:39:01.154Z,4.65
2019-01-20T01:41:30.533Z,4.80
2019-01-20T01:44:00.155Z,4.85
2019-01-20T01:46:29.711Z,4.86
2019-01-20T01:48:59.133Z,4.80
2019-01-20T01:51:28.522Z,4.84
2019-01-20T01:53:58.017Z,4.86
2019-01-20T01:56:27.543Z,4.91
2019-01-20T01:58:56.948Z,4.93
2019-01-20T02:01:26.529Z,4.92
2019-01-20T02:03:55.967Z,4.89
2019-01-20T02:06:25.403Z,4.89
2019-01-20T02:08:54.885Z,4.92
2019-01-20T02:11:24.374Z,4.91
2019-01-20T02:13:53.832Z,4.94
2019-01-20T02:16:23.284Z,4.92
2019-01-20T02:18:52.755Z,4.91
2019-01-20T02:21:22.349Z,4.90
2019-01-20T02:23:51.831Z,4.96
2019-01-20T02:26:21.237Z,4.96
2019-01-20T02:28:50.915Z,4.98
2019-01-20T02:31:20.454Z,4.99
2019-01-20T02:33:49.896Z,5.00
2019-01-20T02:36:19.282Z,5.03
2019-01-20T02:38:48.790Z,4.99
2019-01-20T02:41:18.294Z,4.92
2019-01-20T02:43:47.721Z,5.06
2019-01-20T02:46:17.280Z,5.05
2019-01-20T02:48:47.793Z,5.04
2019-01-20T02:51:17.179Z,5.04
2019-01-20T02:53:46.849Z,5.09
2019-01-20T02:58:51.789Z,4.99
2019-01-20T03:01:21.193Z,4.90
2019-01-20T03:03:50.601Z,4.96
2019-01-20T03:06:20.406Z,4.97
2019-01-20T03:08:49.901Z,4.97
2019-01-20T03:11:19.366Z,5.02
2019-01-20T03:13:48.791Z,5.07
2019-01-20T03:16:18.286Z,5.08
2019-01-20T03:18:48.137Z,5.08
2019-01-20T03:21:17.839Z,5.00
2019-01-20T03:23:47.233Z,4.97
2019-01-20T03:26:16.712Z,5.00
2019-01-20T03:28:46.368Z,5.04
2019-01-20T03:31:15.774Z,5.03
2019-01-20T03:33:45.181Z,5.07
2019-01-20T03:36:14.686Z,5.01
2019-01-20T03:38:44.081Z,5.04
2019-01-20T03:41:13.603Z,5.03
2019-01-20T03:43:43.260Z,5.05
2019-01-20T03:46:12.661Z,5.05
2019-01-20T03:48:42.078Z,5.08
2019-01-20T03:51:11.868Z,5.06
2019-01-20T03:53:41.353Z,5.03
2019-01-20T03:56:10.759Z,4.94
2019-01-20T03:58:40.227Z,5.05
2019-01-20T04:01:09.720Z,5.02
2019-01-20T04:03:39.195Z,5.08
2019-01-20T04:06:08.641Z,5.08
2019-01-20T04:08:38.050Z,5.05
2019-01-20T04:11:07.549Z,5.04
2019-01-20T04:13:37.288Z,5.06
2019-01-20T04:16:06.694Z,4.96
2019-01-20T04:18:36.267Z,4.92
2019-01-20T04:21:05.959Z,4.79
2019-01-20T04:23:35.361Z,4.67
2019-01-20T04:26:04.946Z,4.78
2019-01-20T04:28:34.796Z,4.82
2019-01-20T04:31:04.191Z,4.89
2019-01-20T04:33:33.596Z,4.92
2019-01-20T04:36:03.346Z,4.90
2019-01-20T04:38:32.802Z,4.90
2019-01-20T04:41:02.204Z,4.87
2019-01-20T04:43:31.709Z,4.73
2019-01-20T04:46:01.187Z,4.62
2019-01-20T04:48:30.672Z,4.47
2019-01-20T04:51:00.126Z,4.51
2019-01-20T04:53:29.709Z,4.56
2019-01-20T04:55:59.180Z,4.57
2019-01-20T04:58:28.841Z,4.66
2019-01-20T05:00:58.516Z,4.68
2019-01-20T05:03:27.989Z,4.75
2019-01-20T05:05:57.435Z,4.76
2019-01-20T05:08:26.827Z,4.76
2019-01-20T05:10:56.336Z,4.76
2019-01-20T05:13:25.836Z,4.77
2019-01-20T05:15:55.239Z,4.74
2019-01-20T05:18:24.645Z,4.74
2019-01-20T05:20:54.169Z,4.71
2019-01-20T05:23:23.653Z,4.71
2019-01-20T05:25:53.065Z,4.73
2019-01-20T05:28:22.660Z,4.63
2019-01-20T05:30:52.188Z,4.67
2019-01-20T05:33:21.671Z,4.77
2019-01-20T05:35:51.200Z,4.73
2019-01-20T05:38:20.639Z,4.64
2019-01-20T05:40:50.154Z,4.58
2019-01-20T05:43:19.695Z,4.63
2019-01-20T05:45:49.102Z,4.77
2019-01-20T05:48:18.605Z,4.72
2019-01-20T05:50:48.171Z,4.62
2019-01-20T05:53:17.665Z,4.41
2019-01-20T05:55:47.105Z,4.35
2019-01-20T05:58:16.554Z,4.34
2019-01-20T06:00:46.155Z,4.43
2019-01-20T06:03:16.803Z,4.54
2019-01-20T06:05:46.241Z,4.64
2019-01-20T06:08:15.678Z,4.68
2019-01-20T06:10:45.196Z,4.65
2019-01-20T06:13:14.706Z,4.53
2019-01-20T06:15:44.937Z,4.68
2019-01-20T06:18:14.470Z,4.49
2019-01-20T06:20:43.870Z,4.40
2019-01-20T06:23:13.268Z,4.34
2019-01-20T06:25:42.730Z,4.44
2019-01-20T06:28:12.251Z,4.46
2019-01-20T06:30:41.651Z,4.50
2019-01-20T06:33:11.037Z,4.48
2019-01-20T06:35:40.622Z,4.42
2019-01-20T06:38:10.451Z,4.46
2019-01-20T06:40:39.835Z,4.39
2019-01-20T06:43:09.267Z,4.47
2019-01-20T06:45:38.754Z,4.50
2019-01-20T06:48:08.234Z,4.55
2019-01-20T06:50:37.701Z,4.55
2019-01-20T06:53:07.112Z,4.61
2019-01-20T06:55:36.633Z,4.63
2019-01-20T06:58:06.278Z,4.59
2019-01-20T07:00:36.574Z,4.44
2019-01-20T07:03:06.126Z,4.56
2019-01-20T07:05:35.740Z,4.56
2019-01-20T07:08:05.406Z,4.51
2019-01-20T07:10:34.891Z,4.55
2019-01-20T07:13:09.230Z,4.52
2019-01-20T07:15:35.749Z,4.57
2019-01-20T07:18:05.286Z,4.53
2019-01-20T07:20:34.818Z,4.57
2019-01-20T07:23:04.419Z,4.65
2019-01-20T07:25:33.829Z,4.50
2019-01-20T07:28:03.475Z,4.57
2019-01-20T07:30:32.983Z,4.45
2019-01-20T07:33:04.534Z,4.53
2019-01-20T07:35:34.125Z,4.54
2019-01-20T07:38:03.770Z,4.61
2019-01-20T07:40:34.480Z,4.69
2019-01-20T07:43:04.251Z,4.76
2019-01-20T07:45:34.442Z,4.89
2019-01-20T07:48:03.963Z,4.99
2019-01-20T07:50:33.452Z,4.96
2019-01-20T07:53:02.935Z,4.79
2019-01-20T07:55:32.454Z,4.70
2019-01-20T07:58:02.367Z,4.77
2019-01-20T08:00:31.956Z,4.54
2019-01-20T08:03:02.179Z,4.72
2019-01-20T08:05:32.017Z,4.76
2019-01-20T08:08:01.561Z,4.68
2019-01-20T08:10:31.459Z,4.58
2019-01-20T08:13:00.938Z,4.70
2019-01-20T08:15:30.447Z,4.74
2019-01-20T08:18:00.147Z,4.85
2019-01-20T08:20:29.895Z,4.88
2019-01-20T08:22:59.428Z,4.78
2019-01-20T08:25:28.935Z,4.86
2019-01-20T08:27:58.390Z,4.82
2019-01-20T08:30:28.804Z,4.86
2019-01-20T08:32:58.294Z,4.95
2019-01-20T08:35:27.884Z,4.98
2019-01-20T08:37:57.314Z,4.97
2019-01-20T08:40:31.329Z,4.95
2019-01-20T08:43:01.176Z,4.92
2019-01-20T08:45:49.951Z,4.85
2019-01-20T08:48:21.212Z,4.90
2019-01-20T08:50:50.716Z,4.84
2019-01-20T08:53:20.437Z,4.89
2019-01-20T08:55:49.882Z,4.99
2019-01-20T08:58:19.381Z,5.03
2019-01-20T09:00:48.983Z,5.04
2019-01-20T09:03:21.462Z,5.09
2019-01-20T09:05:51.012Z,5.08
2019-01-20T09:08:20.749Z,5.10
2019-01-20T09:10:50.234Z,5.11
2019-01-20T09:13:20.661Z,5.14
2019-01-20T09:15:50.414Z,5.18
2019-01-20T09:18:20.191Z,5.21
2019-01-20T09:20:49.885Z,5.13
2019-01-20T09:23:19.349Z,5.16
2019-01-20T09:25:52.117Z,5.18
2019-01-20T09:28:21.637Z,5.25
2019-01-20T09:30:51.095Z,5.28
2019-01-20T09:33:24.715Z,5.26
2019-01-20T09:35:58.711Z,5.28
2019-01-20T09:39:30.910Z,5.27
2019-01-20T09:42:04.114Z,5.19
2019-01-20T09:44:33.832Z,5.24
2019-01-20T09:47:04.000Z,5.28
2019-01-20T09:49:33.507Z,5.16
2019-01-20T09:52:03.944Z,5.13
2019-01-20T09:54:35.491Z,5.22
2019-01-20T09:57:14.598Z,5.26
2019-01-20T09:59:47.544Z,5.37
2019-01-20T10:02:16.851Z,5.38
2019-01-20T10:04:46.732Z,5.39
2019-01-20T10:07:16.115Z,5.42
2019-01-20T10:09:45.524Z,5.36
2019-01-20T10:12:15.066Z,5.39
2019-01-20T10:14:44.533Z,5.43
2019-01-20T10:17:13.962Z,5.38
2019-01-20T10:19:46.499Z,5.28
2019-01-20T10:22:15.957Z,5.35
2019-01-20T10:24:45.380Z,5.43
2019-01-20T10:27:14.961Z,5.44
2019-01-20T10:29:44.409Z,5.44
2019-01-20T10:32:34.750Z,5.40
2019-01-20T10:35:05.305Z,5.34
2019-01-20T10:37:35.773Z,5.42
2019-01-20T10:40:06.357Z,5.41
2019-01-20T10:42:35.791Z,5.50
2019-01-20T10:45:06.711Z,5.50
2019-01-20T10:47:36.254Z,5.35
2019-01-20T10:50:07.565Z,5.28
2019-01-20T10:52:37.325Z,5.28
2019-01-20T10:55:08.018Z,5.35
2019-01-20T10:57:38.906Z,5.35
2019-01-20T11:00:17.028Z,5.25
2019-01-20T11:02:47.873Z,5.46
2019-01-20T11:05:17.278Z,5.57
2019-01-20T11:07:47.022Z,5.60
2019-01-20T11:10:16.797Z,5.65
2019-01-20T11:12:46.414Z,5.61
2019-01-20T11:15:17.191Z,5.71
2019-01-20T11:17:46.713Z,5.75
2019-01-20T11:20:17.033Z,5.88
2019-01-20T11:22:47.049Z,5.86
2019-01-20T11:25:20.219Z,5.90
2019-01-20T11:27:49.784Z,5.96
2019-01-20T11:30:19.555Z,6.06
2019-01-20T11:32:49.353Z,6.17
2019-01-20T11:35:19.681Z,6.20
2019-01-20T11:37:49.598Z,6.24
2019-01-20T11:40:19.267Z,6.27
2019-01-20T11:42:48.874Z,6.27
2019-01-20T11:45:20.811Z,6.18
2019-01-20T11:47:50.320Z,6.22
2019-01-20T11:50:20.469Z,6.17
2019-01-20T11:52:50.117Z,6.08
2019-01-20T11:55:21.098Z,6.20
2019-01-20T11:57:50.632Z,6.34
2019-01-20T12:00:22.454Z,6.45
2019-01-20T12:02:52.230Z,6.45
2019-01-20T12:05:22.398Z,6.38
2019-01-20T12:07:51.996Z,6.17
2019-01-20T12:10:22.306Z,6.23
2019-01-20T12:12:57.371Z,6.23
2019-01-20T12:15:27.134Z,6.16
2019-01-20T12:17:56.589Z,6.18
2019-01-20T12:20:26.123Z,6.16
2019-01-20T12:22:55.522Z,5.96
2019-01-20T12:25:24.926Z,6.14
2019-01-20T12:27:54.474Z,6.28
2019-01-20T12:30:25.905Z,6.34
2019-01-20T12:32:55.553Z,6.34
2019-01-20T12:35:25.402Z,6.34
2019-01-20T12:37:54.991Z,6.36
2019-01-20T12:40:30.394Z,6.33
2019-01-20T12:42:59.768Z,6.46
2019-01-20T12:45:29.371Z,6.52
2019-01-20T12:47:58.946Z,6.57
2019-01-20T12:50:28.413Z,6.50
2019-01-20T12:52:57.887Z,6.45
2019-01-20T12:55:27.644Z,6.48
2019-01-20T12:57:57.131Z,6.26
2019-01-20T13:00:26.533Z,5.99
2019-01-20T13:02:56.136Z,6.16
2019-01-20T13:05:25.708Z,6.19
2019-01-20T13:07:55.159Z,5.88
2019-01-20T13:10:24.632Z,6.08
2019-01-20T13:12:54.114Z,6.14
2019-01-20T13:15:23.759Z,6.23
2019-01-20T13:17:53.347Z,6.30
2019-01-20T13:20:24.292Z,6.43
2019-01-20T13:22:54.032Z,6.55
2019-01-20T13:25:25.655Z,6.63
2019-01-20T13:27:55.075Z,6.75
2019-01-20T13:30:26.188Z,6.76
2019-01-20T13:32:55.859Z,6.76
2019-01-20T13:35:26.300Z,6.69
2019-01-20T13:38:01.763Z,6.41
2019-01-20T13:40:53.217Z,6.44
2019-01-20T13:43:22.678Z,6.43
2019-01-20T13:45:52.104Z,6.35
2019-01-20T13:48:21.591Z,6.45
2019-01-20T13:50:51.359Z,6.47
2019-01-20T13:53:20.801Z,6.51
2019-01-20T13:55:50.202Z,6.37
2019-01-20T13:58:19.850Z,6.45
2019-01-20T14:00:49.802Z,6.57
2019-01-20T14:03:19.298Z,6.27
2019-01-20T14:05:49.012Z,6.45
2019-01-20T14:08:18.587Z,6.60
2019-01-20T14:10:48.118Z,6.65
2019-01-20T14:13:17.725Z,6.51
2019-01-20T14:15:47.171Z,6.54
2019-01-20T14:18:16.632Z,6.58
2019-01-20T14:20:46.083Z,6.45
2019-01-20T14:23:15.572Z,6.49
2019-01-20T14:25:45.049Z,6.42
2019-01-20T14:28:14.484Z,6.43
2019-01-20T14:30:43.896Z,6.49
2019-01-20T14:33:13.379Z,6.54
2019-01-20T14:35:42.918Z,6.57
2019-01-20T14:38:12.311Z,6.53
2019-01-20T14:40:41.713Z,6.58
2019-01-20T14:43:11.383Z,6.59
2019-01-20T14:45:40.862Z,6.60
2019-01-20T14:48:10.243Z,6.55
2019-01-20T14:50:39.862Z,6.54
2019-01-20T14:53:09.393Z,6.52
2019-01-20T14:55:38.887Z,6.52
2019-01-20T14:58:08.331Z,6.57
2019-01-20T15:00:38.328Z,6.54
2019-01-20T15:03:08.315Z,6.51
2019-01-20T15:05:37.920Z,6.47
2019-01-20T15:08:08.652Z,6.42
2019-01-20T15:10:38.139Z,6.41
2019-01-20T15:13:07.744Z,6.42
2019-01-20T15:15:39.621Z,6.40
2019-01-20T15:18:09.705Z,6.34
2019-01-20T15:20:39.774Z,6.31
2019-01-20T15:23:09.407Z,6.29
2019-01-20T15:25:38.815Z,6.27
2019-01-20T15:28:08.883Z,6.27
2019-01-20T15:30:38.458Z,6.21
2019-01-20T15:33:07.873Z,6.19
2019-01-20T15:35:37.431Z,6.18
2019-01-20T15:38:07.210Z,6.18
2019-01-20T15:40:36.604Z,6.17
2019-01-20T15:43:06.489Z,6.17
2019-01-20T15:45:36.172Z,6.14
2019-01-20T15:48:05.985Z,6.13
2019-01-20T15:50:35.435Z,6.13
2019-01-20T15:53:04.943Z,6.15
2019-01-20T15:55:34.402Z,6.14
2019-01-20T15:58:04.026Z,6.12
2019-01-20T16:00:33.623Z,6.09
2019-01-20T16:03:03.129Z,6.10
2019-01-20T16:05:32.795Z,6.09
2019-01-20T16:08:02.207Z,6.11
2019-01-20T16:10:31.858Z,6.12
2019-01-20T16:13:01.405Z,6.07
2019-01-20T16:15:36.065Z,6.05
2019-01-20T16:18:05.968Z,6.04
2019-01-20T16:20:35.588Z,6.04
2019-01-20T16:23:06.802Z,6.07
2019-01-20T16:25:37.698Z,6.09
2019-01-20T16:28:08.455Z,6.05
2019-01-20T16:30:39.478Z,6.05
2019-01-20T16:33:09.028Z,6.06
2019-01-20T16:35:38.492Z,6.04
2019-01-20T16:38:09.533Z,6.06
2019-01-20T16:40:38.983Z,6.00
2019-01-20T16:43:09.530Z,6.01
2019-01-20T16:45:44.442Z,6.03
2019-01-20T16:48:13.972Z,6.03
2019-01-20T16:50:43.484Z,6.01
2019-01-20T16:53:13.019Z,6.03
2019-01-20T16:55:42.500Z,6.01
2019-01-20T16:58:12.180Z,6.00
2019-01-20T17:00:43.703Z,6.01
2019-01-20T17:03:13.115Z,5.97
2019-01-20T17:05:42.509Z,5.96
2019-01-20T17:08:12.475Z,5.97
2019-01-20T17:10:43.131Z,5.97
2019-01-20T17:13:12.925Z,6.00
2019-01-20T17:15:44.146Z,5.97
2019-01-20T17:18:15.313Z,5.90
2019-01-20T17:20:45.175Z,5.94
2019-01-20T17:23:14.942Z,5.92
2019-01-20T17:25:44.430Z,5.90
2019-01-20T17:28:15.159Z,5.99
2019-01-20T17:30:45.235Z,6.01
2019-01-20T17:33:15.547Z,5.96
2019-01-20T17:35:44.999Z,5.87
2019-01-20T17:38:14.523Z,5.81
2019-01-20T17:40:43.925Z,5.87
2019-01-20T17:43:13.434Z,5.89
2019-01-20T17:45:48.650Z,5.91
2019-01-20T17:48:15.666Z,5.87
2019-01-20T17:50:46.051Z,5.90
2019-01-20T17:53:15.936Z,5.92
2019-01-20T17:55:45.428Z,5.87
2019-01-20T17:58:14.840Z,5.95
2019-01-20T18:00:50.874Z,5.98
2019-01-20T18:03:20.472Z,5.90
2019-01-20T18:05:50.264Z,5.91
2019-01-20T18:08:19.708Z,5.97
2019-01-20T18:10:49.116Z,5.93
2019-01-20T18:13:20.069Z,6.00
2019-01-20T18:15:54.365Z,5.83
2019-01-20T18:18:20.895Z,5.87
2019-01-20T18:20:50.587Z,5.91
2019-01-20T18:23:20.020Z,5.99
2019-01-20T18:25:49.436Z,5.98
2019-01-20T18:28:18.945Z,5.90
2019-01-20T18:30:48.688Z,5.89
2019-01-20T18:33:18.160Z,5.95
2019-01-20T18:35:47.536Z,5.91
2019-01-20T18:38:17.072Z,5.98
2019-01-20T18:40:46.542Z,6.06
2019-01-20T18:43:15.939Z,6.03
2019-01-20T18:45:45.395Z,6.02
2019-01-20T18:48:14.910Z,6.02
2019-01-20T18:50:44.399Z,6.03
2019-01-20T18:53:13.836Z,6.07
2019-01-20T18:55:43.265Z,6.05
2019-01-20T18:58:12.803Z,6.02
2019-01-20T19:00:45.340Z,5.95
2019-01-20T19:03:14.836Z,5.95
2019-01-20T19:05:44.318Z,5.93
2019-01-20T19:08:14.276Z,5.90
2019-01-20T19:10:43.668Z,5.87
2019-01-20T19:13:13.158Z,5.85
2019-01-20T19:15:42.825Z,5.85
2019-01-20T19:18:18.654Z,5.82
2019-01-20T19:20:43.417Z,5.76
2019-01-20T19:23:12.945Z,5.74
2019-01-20T19:25:42.417Z,5.75
2019-01-20T19:28:11.868Z,5.68
2019-01-20T19:30:41.334Z,5.61
2019-01-20T19:33:11.021Z,5.62
2019-01-20T19:35:40.520Z,5.57
2019-01-20T19:38:09.984Z,5.59
2019-01-20T19:40:39.497Z,5.60
2019-01-20T19:43:08.881Z,5.61
2019-01-20T19:45:38.337Z,5.71
2019-01-20T19:48:12.974Z,5.76
2019-01-20T19:50:39.083Z,5.75
2019-01-20T19:53:08.505Z,5.67
2019-01-20T19:55:38.180Z,5.79
2019-01-20T19:58:07.801Z,5.75
2019-01-20T20:00:37.396Z,5.71
2019-01-20T20:03:06.812Z,5.83
2019-01-20T20:05:36.285Z,5.93
2019-01-20T20:08:07.435Z,6.12
2019-01-20T20:10:36.938Z,6.13
2019-01-20T20:13:06.412Z,6.14
2019-01-20T20:15:35.908Z,6.15
2019-01-20T20:18:05.694Z,6.10
2019-01-20T20:20:35.130Z,6.00
2019-01-20T20:23:04.770Z,5.93
2019-01-20T20:25:34.914Z,6.00
2019-01-20T20:28:04.348Z,6.01
2019-01-20T20:30:35.986Z,5.92
2019-01-20T20:33:06.473Z,5.89
2019-01-20T20:35:36.902Z,5.93
2019-01-20T20:38:06.491Z,5.94
2019-01-20T20:40:35.938Z,5.92
2019-01-20T20:43:05.468Z,5.91
2019-01-20T20:45:35.111Z,5.88
2019-01-20T20:48:04.626Z,5.88
2019-01-20T20:50:34.053Z,5.87
2019-01-20T20:53:03.582Z,5.88
2019-01-20T20:55:33.089Z,5.90
2019-01-20T20:58:02.582Z,5.92
2019-01-20T21:00:52.590Z,5.95
2019-01-20T21:03:30.789Z,5.89
2019-01-20T21:06:00.441Z,5.77
2019-01-20T21:08:31.214Z,5.83
2019-01-20T21:11:00.685Z,5.77
2019-01-20T21:13:30.216Z,5.68
2019-01-20T21:15:59.608Z,5.52
2019-01-20T21:18:29.089Z,5.52
2019-01-20T21:20:58.608Z,5.47
2019-01-20T21:23:28.005Z,5.44
2019-01-20T21:25:57.471Z,5.33
2019-01-20T21:28:27.151Z,5.29
2019-01-20T21:30:56.626Z,5.27
2019-01-20T21:33:26.022Z,5.22
2019-01-20T21:35:55.492Z,5.17
2019-01-20T21:38:24.990Z,5.09
2019-01-20T21:40:54.473Z,5.10
2019-01-20T21:43:23.936Z,5.08
2019-01-20T21:45:53.343Z,5.05
2019-01-20T21:48:22.832Z,4.95
2019-01-20T21:50:52.363Z,4.97
2019-01-20T21:53:21.762Z,4.89
2019-01-20T21:55:51.181Z,4.84
2019-01-20T21:58:20.979Z,4.67
2019-01-20T22:00:50.444Z,4.59
2019-01-20T22:03:19.848Z,4.59
2019-01-20T22:05:49.307Z,4.56
2019-01-20T22:08:18.858Z,4.61
2019-01-20T22:10:49.663Z,4.59
2019-01-20T22:13:19.222Z,4.61
2019-01-20T22:15:48.700Z,4.64
2019-01-20T22:18:18.179Z,4.58
2019-01-20T22:20:47.835Z,4.53
2019-01-20T22:23:17.341Z,4.47
2019-01-20T22:25:46.886Z,4.46
2019-01-20T22:28:16.349Z,4.43
2019-01-20T22:30:45.762Z,4.47
2019-01-20T22:33:15.256Z,4.44
2019-01-20T22:35:44.987Z,4.41
2019-01-20T22:38:14.382Z,4.41
2019-01-20T22:40:43.787Z,4.40
2019-01-20T22:43:13.325Z,4.35
2019-01-20T22:45:42.807Z,4.30
2019-01-20T22:48:12.188Z,4.34
2019-01-20T22:50:41.841Z,4.39
2019-01-20T22:53:11.429Z,4.33
2019-01-20T22:55:40.917Z,4.25
2019-01-20T22:58:10.444Z,4.25
2019-01-20T23:00:51.697Z,4.31
2019-01-20T23:03:21.248Z,4.18
2019-01-20T23:05:52.745Z,4.15
2019-01-20T23:08:22.629Z,4.10
2019-01-20T23:10:52.246Z,4.06
2019-01-20T23:13:22.880Z,4.00
2019-01-20T23:15:52.285Z,4.02
2019-01-20T23:18:21.919Z,3.96
2019-01-20T23:20:51.437Z,3.93
2019-01-20T23:23:20.925Z,3.95
2019-01-20T23:25:50.366Z,3.95
2019-01-20T23:28:19.850Z,3.95
2019-01-20T23:30:49.313Z,3.86
2019-01-20T23:33:18.960Z,3.71
2019-01-20T23:35:48.443Z,3.58
2019-01-20T23:38:17.907Z,3.54
2019-01-20T23:40:47.362Z,3.49
2019-01-20T23:43:16.859Z,3.43
2019-01-20T23:45:46.328Z,3.41
2019-01-20T23:48:15.747Z,3.41
2019-01-20T23:50:45.148Z,3.47
2019-01-20T23:53:14.649Z,3.55
2019-01-20T23:55:44.162Z,3.66
2019-01-20T23:58:13.533Z,3.68
